createdAt,value
2022-10-24T00:01:19.877Z,0.75
2022-10-24T00:03:48.355Z,1.37
2022-10-24T00:06:15.495Z,1.60
2022-10-24T00:08:43.754Z,2.00
2022-10-24T00:11:14.758Z,2.20
2022-10-24T00:13:42.259Z,2.22
2022-10-24T00:16:09.408Z,2.80
2022-10-24T00:18:36.314Z,3.00
2022-10-24T00:21:03.839Z,3.95
2022-10-24T00:23:30.751Z,4.50
2022-10-24T00:26:01.904Z,3.47
2022-10-24T00:28:31.060Z,4.00
2022-10-24T00:30:58.141Z,2.87
2022-10-24T00:33:25.905Z,1.87
2022-10-24T00:35:53.084Z,1.80
2022-10-24T00:38:20.017Z,2.10
2022-10-24T00:40:47.072Z,2.80
2022-10-24T00:43:23.472Z,3.40
2022-10-24T00:45:56.001Z,3.65
2022-10-24T00:48:28.178Z,3.72
2022-10-24T00:51:01.215Z,3.53
2022-10-24T00:53:31.858Z,4.60
2022-10-24T00:56:00.929Z,4.00
2022-10-24T00:58:30.957Z,4.00
2022-10-24T01:00:58.052Z,4.37
2022-10-24T01:03:25.189Z,3.85
2022-10-24T01:06:12.338Z,3.35
2022-10-24T01:09:10.982Z,3.03
2022-10-24T01:11:56.620Z,2.65
2022-10-24T01:14:55.153Z,2.80
2022-10-24T01:17:46.928Z,1.60
2022-10-24T01:20:34.823Z,1.48
2022-10-24T01:23:30.742Z,1.37
2022-10-24T01:26:11.737Z,1.25
2022-10-24T01:29:05.816Z,1.25
2022-10-24T01:31:47.900Z,1.52
2022-10-24T01:34:41.216Z,0.70
2022-10-24T01:37:25.831Z,0.62
2022-10-24T01:39:58.107Z,1.10
2022-10-24T01:42:27.894Z,0.80
2022-10-24T01:44:57.541Z,1.17
2022-10-24T01:47:33.416Z,1.25
2022-10-24T01:50:04.698Z,0.90
2022-10-24T01:52:36.200Z,1.02
2022-10-24T01:55:04.499Z,1.10
2022-10-24T01:57:33.386Z,0.90
2022-10-24T02:00:00.707Z,1.30
2022-10-24T02:02:33.287Z,0.80
2022-10-24T02:05:24.804Z,0.80
2022-10-24T02:07:56.436Z,0.80
2022-10-24T02:10:32.571Z,0.90
2022-10-24T02:13:12.057Z,1.00
2022-10-24T02:15:47.951Z,1.08
2022-10-24T02:18:16.039Z,1.20
2022-10-24T02:20:53.338Z,1.30
2022-10-24T02:23:35.225Z,1.20
2022-10-24T02:26:05.963Z,1.48
2022-10-24T02:28:40.479Z,1.17
2022-10-24T02:31:18.960Z,1.10
2022-10-24T02:33:46.590Z,1.12
2022-10-24T02:36:17.592Z,0.95
2022-10-24T02:38:47.466Z,1.40
2022-10-24T02:41:21.013Z,1.17
2022-10-24T02:43:51.332Z,1.95
2022-10-24T02:46:20.135Z,2.15
2022-10-24T02:49:00.713Z,2.08
2022-10-24T02:51:31.230Z,9.00
2022-10-24T02:54:00.286Z,8.73
2022-10-24T02:56:27.939Z,5.93
2022-10-24T02:58:54.857Z,4.47
2022-10-24T03:01:22.187Z,4.80
2022-10-24T03:03:49.479Z,5.40
2022-10-24T03:06:16.367Z,6.62
2022-10-24T03:08:43.258Z,6.85
2022-10-24T03:11:10.208Z,4.20
2022-10-24T03:13:37.091Z,3.08
2022-10-24T03:16:06.802Z,3.70
2022-10-24T03:18:36.035Z,10.13
2022-10-24T03:21:02.949Z,8.15
2022-10-24T03:23:30.219Z,8.93
2022-10-24T03:25:58.394Z,6.45
2022-10-24T03:28:25.705Z,6.43
2022-10-24T03:30:53.423Z,8.50
2022-10-24T03:33:20.614Z,21.67
2022-10-24T03:35:51.045Z,8.18
2022-10-24T03:38:17.960Z,6.35
2022-10-24T03:43:12.662Z,8.02
2022-10-24T03:45:39.663Z,7.80
2022-10-24T03:48:06.784Z,11.98
2022-10-24T03:50:34.603Z,7.65
2022-10-24T03:53:02.050Z,11.07
2022-10-24T03:55:29.962Z,21.87
2022-10-24T03:57:56.857Z,16.92
2022-10-24T04:00:23.856Z,14.70
2022-10-24T04:02:51.706Z,7.07
2022-10-24T04:05:18.633Z,8.07
2022-10-24T04:07:45.896Z,7.50
2022-10-24T04:10:13.515Z,5.05
2022-10-24T04:12:40.380Z,12.55
2022-10-24T04:15:07.760Z,9.63
2022-10-24T04:17:34.676Z,11.52
2022-10-24T04:20:01.780Z,5.35
2022-10-24T04:22:28.739Z,6.50
2022-10-24T04:24:55.631Z,5.90
2022-10-24T04:27:22.572Z,13.62
2022-10-24T04:29:49.429Z,7.40
2022-10-24T04:32:16.393Z,7.40
2022-10-24T04:34:43.287Z,7.03
2022-10-24T04:37:10.203Z,8.13
2022-10-24T04:39:37.177Z,3.20
2022-10-24T04:42:04.283Z,6.37
2022-10-24T04:44:31.385Z,9.63
2022-10-24T04:46:58.366Z,3.05
2022-10-24T04:49:25.258Z,4.72
2022-10-24T04:51:52.344Z,4.65
2022-10-24T04:54:19.232Z,3.58
2022-10-24T04:56:46.094Z,5.00
2022-10-24T04:59:12.995Z,6.90
2022-10-24T05:01:39.950Z,9.80
2022-10-24T05:04:06.875Z,10.35
2022-10-24T05:06:34.119Z,12.40
2022-10-24T05:09:01.024Z,2.85
2022-10-24T05:11:27.909Z,4.10
2022-10-24T05:13:54.811Z,6.03
2022-10-24T05:16:21.966Z,8.60
2022-10-24T05:18:49.339Z,8.63
2022-10-24T05:21:16.443Z,6.93
2022-10-24T05:23:43.371Z,2.72
2022-10-24T05:26:10.305Z,6.35
2022-10-24T05:28:37.251Z,7.18
2022-10-24T05:31:04.244Z,6.97
2022-10-24T05:33:31.172Z,5.82
2022-10-24T05:35:58.066Z,7.70
2022-10-24T05:38:25.135Z,5.55
2022-10-24T05:40:52.631Z,4.72
2022-10-24T05:43:19.940Z,5.97
2022-10-24T05:48:16.470Z,3.37
2022-10-24T05:50:43.397Z,5.40
2022-10-24T05:53:10.471Z,4.95
2022-10-24T05:55:37.573Z,6.05
2022-10-24T05:58:04.594Z,6.12
2022-10-24T06:00:33.966Z,4.10
2022-10-24T06:03:01.422Z,4.28
2022-10-24T06:05:28.365Z,3.80
2022-10-24T06:07:55.316Z,5.30
2022-10-24T06:10:22.667Z,4.37
2022-10-24T06:12:49.599Z,3.00
2022-10-24T06:15:16.598Z,2.78
2022-10-24T06:17:43.668Z,3.17
2022-10-24T06:20:11.453Z,4.20
2022-10-24T06:22:38.798Z,2.20
2022-10-24T06:25:06.174Z,2.65
2022-10-24T06:27:33.114Z,3.10
2022-10-24T06:30:00.043Z,2.47
2022-10-24T06:32:26.942Z,2.70
2022-10-24T06:34:53.842Z,3.20
2022-10-24T06:37:20.849Z,2.90
2022-10-24T06:39:47.878Z,2.80
2022-10-24T06:42:15.123Z,2.70
2022-10-24T06:44:42.049Z,2.97
2022-10-24T06:47:09.187Z,2.20
2022-10-24T06:49:36.177Z,3.53
2022-10-24T06:52:03.691Z,3.70
2022-10-24T06:54:31.189Z,3.35
2022-10-24T06:56:58.185Z,3.67
2022-10-24T06:59:25.226Z,2.12
2022-10-24T07:01:52.655Z,0.88
2022-10-24T07:04:19.623Z,2.20
2022-10-24T07:06:46.567Z,3.65
2022-10-24T07:09:15.475Z,2.42
2022-10-24T07:11:45.752Z,2.08
2022-10-24T07:14:13.059Z,2.10
2022-10-24T07:16:40.450Z,4.18
2022-10-24T07:19:07.997Z,2.37
2022-10-24T07:21:35.171Z,1.92
2022-10-24T07:24:02.424Z,2.40
2022-10-24T07:26:30.462Z,1.98
2022-10-24T07:31:34.740Z,2.28
2022-10-24T07:34:04.577Z,2.25
2022-10-24T07:36:31.575Z,1.52
2022-10-24T07:39:00.433Z,2.00
2022-10-24T07:41:30.234Z,2.20
2022-10-24T07:44:02.579Z,2.25
2022-10-24T07:46:30.483Z,1.73
2022-10-24T07:48:57.740Z,1.58
2022-10-24T07:51:28.085Z,1.90
2022-10-24T07:53:55.103Z,2.30
2022-10-24T07:56:22.259Z,2.20
2022-10-24T07:58:49.301Z,2.10
2022-10-24T08:01:25.539Z,2.30
2022-10-24T08:03:52.489Z,1.48
2022-10-24T08:06:28.399Z,2.22
2022-10-24T08:08:55.455Z,2.30
2022-10-24T08:11:26.033Z,1.75
2022-10-24T08:13:55.145Z,1.23
2022-10-24T08:16:24.174Z,2.03
2022-10-24T08:18:52.916Z,2.42
2022-10-24T08:21:21.570Z,1.50
2022-10-24T08:23:51.372Z,1.17
2022-10-24T08:26:21.631Z,1.20
2022-10-24T08:28:49.514Z,1.35
2022-10-24T08:31:19.380Z,1.70
2022-10-24T08:33:46.604Z,1.42
2022-10-24T08:36:19.636Z,1.58
2022-10-24T08:38:46.547Z,1.25
2022-10-24T08:41:21.108Z,1.77
2022-10-24T08:43:48.211Z,2.60
2022-10-24T08:46:33.939Z,2.67
2022-10-24T08:49:15.272Z,3.37
2022-10-24T08:52:07.256Z,2.92
2022-10-24T08:54:42.971Z,3.03
2022-10-24T08:57:22.947Z,2.42
2022-10-24T08:59:52.137Z,3.45
2022-10-24T09:02:26.174Z,3.53
2022-10-24T09:04:58.648Z,3.75
2022-10-24T09:07:25.842Z,3.87
2022-10-24T09:10:17.069Z,4.20
2022-10-24T09:12:44.039Z,3.53
2022-10-24T09:15:24.568Z,4.93
2022-10-24T09:17:53.262Z,4.65
2022-10-24T09:20:29.005Z,3.80
2022-10-24T09:22:59.622Z,5.25
2022-10-24T09:25:30.299Z,4.53
2022-10-24T09:28:01.414Z,2.95
2022-10-24T09:30:33.059Z,3.83
2022-10-24T09:33:24.932Z,3.53
2022-10-24T09:35:54.242Z,2.95
2022-10-24T09:38:32.121Z,3.62
2022-10-24T09:41:03.637Z,3.95
2022-10-24T09:43:50.421Z,3.12
2022-10-24T09:46:23.886Z,3.80
2022-10-24T09:49:22.707Z,4.35
2022-10-24T09:52:08.341Z,4.07
2022-10-24T09:54:37.114Z,3.67
2022-10-24T09:59:47.772Z,2.97
2022-10-24T10:02:20.709Z,2.45
2022-10-24T10:04:57.913Z,2.30
2022-10-24T10:07:33.398Z,2.35
2022-10-24T10:10:06.581Z,2.35
2022-10-24T10:12:40.248Z,2.30
2022-10-24T10:15:46.356Z,2.17
2022-10-24T10:18:42.646Z,2.08
2022-10-24T10:21:14.474Z,2.47
2022-10-24T10:23:49.181Z,2.10
2022-10-24T10:26:43.821Z,1.85
2022-10-24T10:29:16.710Z,1.67
2022-10-24T10:31:47.054Z,1.62
2022-10-24T10:34:45.922Z,1.70
2022-10-24T10:37:31.894Z,1.40
2022-10-24T10:40:32.520Z,1.62
2022-10-24T10:43:22.270Z,2.12
2022-10-24T10:46:12.188Z,1.50
2022-10-24T10:49:00.208Z,2.17
2022-10-24T10:51:44.632Z,1.90
2022-10-24T10:54:33.665Z,2.12
2022-10-24T10:57:09.794Z,2.55
2022-10-24T10:59:49.402Z,2.80
2022-10-24T11:02:25.771Z,2.58
2022-10-24T11:05:25.873Z,2.25
2022-10-24T11:08:30.512Z,2.20
2022-10-24T11:11:06.077Z,2.00
2022-10-24T11:13:56.204Z,2.25
2022-10-24T11:16:27.877Z,1.90
2022-10-24T11:19:01.375Z,1.90
2022-10-24T11:21:32.280Z,2.45
2022-10-24T11:24:15.441Z,2.58
2022-10-24T11:27:04.801Z,3.30
2022-10-24T11:29:42.327Z,2.92
2022-10-24T11:32:22.220Z,4.00
2022-10-24T11:34:56.092Z,3.40
2022-10-24T11:37:32.045Z,3.47
2022-10-24T11:40:19.686Z,3.62
2022-10-24T11:43:11.086Z,2.78
2022-10-24T11:45:56.111Z,2.30
2022-10-24T11:48:30.949Z,2.50
2022-10-24T11:51:06.515Z,1.83
2022-10-24T11:53:33.473Z,1.70
2022-10-24T11:56:18.062Z,1.67
2022-10-24T11:58:59.466Z,1.40
2022-10-24T12:01:37.560Z,1.50
2022-10-24T12:04:26.131Z,1.70
2022-10-24T12:07:11.258Z,1.80
2022-10-24T12:10:16.627Z,1.77
2022-10-24T12:13:10.248Z,1.75
2022-10-24T12:15:54.929Z,3.17
2022-10-24T12:18:32.758Z,3.10
2022-10-24T12:21:11.272Z,4.75
2022-10-24T12:23:39.962Z,4.72
2022-10-24T12:26:25.060Z,5.55
2022-10-24T12:28:55.859Z,5.20
2022-10-24T12:31:27.839Z,6.20
2022-10-24T12:34:25.125Z,6.50
2022-10-24T12:37:11.299Z,6.50
2022-10-24T12:39:47.787Z,6.65
2022-10-24T12:42:23.744Z,7.60
2022-10-24T12:45:00.140Z,6.57
2022-10-24T12:47:34.368Z,6.78
2022-10-24T12:50:23.068Z,6.53
2022-10-24T12:52:54.597Z,5.20
2022-10-24T12:55:39.304Z,6.05
2022-10-24T12:58:22.908Z,5.72
2022-10-24T13:01:11.536Z,5.47
2022-10-24T13:03:50.868Z,6.10
2022-10-24T13:06:36.839Z,4.18
2022-10-24T13:09:28.810Z,5.40
2022-10-24T13:11:58.859Z,4.75
2022-10-24T13:14:46.699Z,4.87
2022-10-24T13:17:33.785Z,4.55
2022-10-24T13:20:19.364Z,4.28
2022-10-24T13:22:47.597Z,4.70
2022-10-24T13:25:37.939Z,3.90
2022-10-24T13:28:25.128Z,2.72
2022-10-24T13:31:17.650Z,1.70
2022-10-24T13:33:46.709Z,1.00
2022-10-24T13:36:28.557Z,0.80
2022-10-24T13:39:00.854Z,0.65
2022-10-24T13:41:37.110Z,0.77
2022-10-24T13:44:26.599Z,0.70
2022-10-24T13:47:31.743Z,0.52
2022-10-24T13:50:04.485Z,0.90
2022-10-24T13:52:59.246Z,0.75
2022-10-24T13:55:41.918Z,0.60
2022-10-24T13:58:36.637Z,0.60
2022-10-24T14:01:11.243Z,0.77
2022-10-24T14:03:43.841Z,0.50
2022-10-24T14:06:11.490Z,0.50
2022-10-24T14:08:53.251Z,0.52
2022-10-24T14:11:29.201Z,1.23
2022-10-24T14:14:05.680Z,2.78
2022-10-24T14:16:35.521Z,1.08
2022-10-24T14:19:27.051Z,0.82
2022-10-24T14:21:56.678Z,0.75
2022-10-24T14:24:23.707Z,0.90
2022-10-24T14:26:53.340Z,1.77
2022-10-24T14:29:31.305Z,3.30
2022-10-24T14:32:09.884Z,2.37
2022-10-24T14:34:38.911Z,10.23
2022-10-24T14:37:09.360Z,5.93
2022-10-24T14:39:38.539Z,3.37
2022-10-24T14:42:08.632Z,2.42
2022-10-24T14:44:38.483Z,1.80
2022-10-24T14:47:20.442Z,1.10
2022-10-24T14:49:47.791Z,0.70
2022-10-24T14:52:14.650Z,0.57
2022-10-24T14:55:00.573Z,0.35
2022-10-24T14:57:28.726Z,0.43
2022-10-24T14:59:57.459Z,0.50
2022-10-24T15:02:31.348Z,0.50
2022-10-24T15:05:20.448Z,0.20
2022-10-24T15:08:16.703Z,0.40
2022-10-24T15:10:40.908Z,0.32
2022-10-24T15:13:17.855Z,0.40
2022-10-24T15:15:44.679Z,0.35
2022-10-24T15:18:25.869Z,0.30
2022-10-24T15:21:07.963Z,0.60
2022-10-24T15:23:47.595Z,0.43
2022-10-24T15:26:44.872Z,2.67
2022-10-24T15:29:14.844Z,6.25
2022-10-24T15:31:44.183Z,4.57
2022-10-24T15:34:37.473Z,1.80
2022-10-24T15:37:06.534Z,1.50
2022-10-24T15:39:33.553Z,1.10
2022-10-24T15:42:00.552Z,1.40
2022-10-24T15:44:31.290Z,1.35
2022-10-24T15:46:58.274Z,2.40
2022-10-24T15:49:25.171Z,1.70
2022-10-24T15:51:52.236Z,1.90
2022-10-24T15:54:21.734Z,1.70
2022-10-24T15:56:49.858Z,1.83
2022-10-24T15:59:18.552Z,2.75
2022-10-24T16:01:49.738Z,6.00
2022-10-24T16:04:17.802Z,4.20
2022-10-24T16:06:44.812Z,3.50
2022-10-24T16:09:31.171Z,3.80
2022-10-24T16:11:58.287Z,2.87
2022-10-24T16:14:26.261Z,3.10
2022-10-24T16:16:55.222Z,3.12
2022-10-24T16:19:23.425Z,3.47
2022-10-24T16:21:50.342Z,3.92
2022-10-24T16:24:18.428Z,4.18
2022-10-24T16:26:45.533Z,3.20
2022-10-24T16:29:12.508Z,3.67
2022-10-24T16:31:39.471Z,3.72
2022-10-24T16:34:07.440Z,2.97
2022-10-24T16:36:34.722Z,1.90
2022-10-24T16:39:01.653Z,1.98
2022-10-24T16:41:28.727Z,1.90
2022-10-24T16:43:57.307Z,2.08
2022-10-24T16:46:26.002Z,1.85
2022-10-24T16:48:53.401Z,1.33
2022-10-24T16:51:24.893Z,1.85
2022-10-24T16:53:52.116Z,1.83
2022-10-24T16:56:19.116Z,1.65
2022-10-24T16:58:46.040Z,1.30
2022-10-24T17:01:15.621Z,1.30
2022-10-24T17:03:44.875Z,1.20
2022-10-24T17:06:12.315Z,1.12
2022-10-24T17:08:39.282Z,1.30
2022-10-24T17:11:20.263Z,1.20
2022-10-24T17:13:53.555Z,1.37
2022-10-24T17:16:20.946Z,1.40
2022-10-24T17:19:04.677Z,1.35
2022-10-24T17:21:33.108Z,1.30
2022-10-24T17:24:00.145Z,1.33
2022-10-24T17:26:27.981Z,1.30
2022-10-24T17:28:54.982Z,1.40
2022-10-24T17:31:21.959Z,1.10
2022-10-24T17:33:49.244Z,1.45
2022-10-24T17:36:23.504Z,1.17
2022-10-24T17:39:14.084Z,1.80
2022-10-24T17:41:42.282Z,1.60
2022-10-24T17:44:16.836Z,1.62
2022-10-24T17:46:45.224Z,1.40
2022-10-24T17:49:17.835Z,1.33
2022-10-24T17:51:49.181Z,1.52
2022-10-24T17:54:16.681Z,2.30
2022-10-24T17:56:44.124Z,2.80
2022-10-24T17:59:11.130Z,2.97
2022-10-24T18:01:38.275Z,1.70
2022-10-24T18:04:05.445Z,1.40
2022-10-24T18:06:32.638Z,1.62
2022-10-24T18:08:59.835Z,1.33
2022-10-24T18:11:26.823Z,1.30
2022-10-24T18:13:53.962Z,1.45
2022-10-24T18:16:20.981Z,1.35
2022-10-24T18:18:48.311Z,1.23
2022-10-24T18:23:47.200Z,1.20
2022-10-24T18:26:19.726Z,1.30
2022-10-24T18:28:49.804Z,1.80
2022-10-24T18:31:21.823Z,1.10
2022-10-24T18:33:49.131Z,1.12
2022-10-24T18:36:25.214Z,2.17
2022-10-24T18:38:54.806Z,1.58
2022-10-24T18:41:30.655Z,1.20
2022-10-24T18:43:59.833Z,1.30
2022-10-24T18:46:27.725Z,1.25
2022-10-24T18:48:55.008Z,1.10
2022-10-24T18:51:51.359Z,1.40
2022-10-24T18:54:20.941Z,1.50
2022-10-24T18:56:48.834Z,1.17
2022-10-24T18:59:19.427Z,1.50
2022-10-24T19:01:54.053Z,2.40
2022-10-24T19:04:25.931Z,2.05
2022-10-24T19:06:59.264Z,2.17
2022-10-24T19:09:26.975Z,2.12
2022-10-24T19:11:53.989Z,2.47
2022-10-24T19:14:21.207Z,2.15
2022-10-24T19:16:50.498Z,1.83
2022-10-24T19:19:26.314Z,1.55
2022-10-24T19:21:53.606Z,1.30
2022-10-24T19:24:20.663Z,1.37
2022-10-24T19:26:48.077Z,1.40
2022-10-24T19:29:15.064Z,1.40
2022-10-24T19:31:41.918Z,1.23
2022-10-24T19:34:10.571Z,1.02
2022-10-24T19:36:38.842Z,0.90
2022-10-24T19:39:06.577Z,0.90
2022-10-24T19:41:33.707Z,0.88
2022-10-24T19:44:00.619Z,1.17
2022-10-24T19:46:27.735Z,1.00
2022-10-24T19:48:55.286Z,0.90
2022-10-24T19:51:23.278Z,1.00
2022-10-24T19:53:51.726Z,0.95
2022-10-24T19:56:24.099Z,1.00
2022-10-24T19:58:53.380Z,1.10
2022-10-24T20:01:23.041Z,1.05
2022-10-24T20:03:51.359Z,1.10
2022-10-24T20:06:19.735Z,1.23
2022-10-24T20:08:47.806Z,1.05
2022-10-24T20:11:15.950Z,1.10
2022-10-24T20:13:44.037Z,1.12
2022-10-24T20:16:11.096Z,1.02
2022-10-24T20:21:12.162Z,1.10
2022-10-24T20:23:40.667Z,1.10
2022-10-24T20:26:13.429Z,1.30
2022-10-24T20:28:43.379Z,1.00
2022-10-24T20:31:40.890Z,1.35
2022-10-24T20:34:09.932Z,1.10
2022-10-24T20:36:39.442Z,1.17
2022-10-24T20:39:07.949Z,1.17
2022-10-24T20:41:35.928Z,0.85
2022-10-24T20:44:03.402Z,1.05
2022-10-24T20:46:31.377Z,1.27
2022-10-24T20:48:58.414Z,1.37
2022-10-24T20:51:25.363Z,0.93
2022-10-24T20:53:52.467Z,1.00
2022-10-24T20:56:22.546Z,0.95
2022-10-24T20:58:53.133Z,1.05
2022-10-24T21:01:25.124Z,1.00
2022-10-24T21:03:52.737Z,1.00
2022-10-24T21:06:22.147Z,1.27
2022-10-24T21:08:51.014Z,1.30
2022-10-24T21:11:26.768Z,1.27
2022-10-24T21:14:02.641Z,1.40
2022-10-24T21:16:30.112Z,1.30
2022-10-24T21:18:57.982Z,1.33
2022-10-24T21:21:25.486Z,0.95
2022-10-24T21:23:54.714Z,1.20
2022-10-24T21:26:22.455Z,1.20
2022-10-24T21:28:50.202Z,1.33
2022-10-24T21:31:19.290Z,1.35
2022-10-24T21:33:47.130Z,1.10
2022-10-24T21:36:17.035Z,0.90
2022-10-24T21:38:52.182Z,1.27
2022-10-24T21:41:20.329Z,1.17
2022-10-24T21:43:47.718Z,1.15
2022-10-24T21:46:24.823Z,1.75
2022-10-24T21:48:53.133Z,1.00
2022-10-24T21:51:23.123Z,0.98
2022-10-24T21:53:53.949Z,0.90
2022-10-24T21:56:26.010Z,1.05
2022-10-24T21:59:00.716Z,1.20
2022-10-24T22:01:47.869Z,1.05
2022-10-24T22:04:16.693Z,0.90
2022-10-24T22:06:44.921Z,0.77
2022-10-24T22:09:15.752Z,0.80
2022-10-24T22:11:43.215Z,0.60
2022-10-24T22:14:12.207Z,0.82
2022-10-24T22:16:39.404Z,0.70
2022-10-24T22:19:06.615Z,0.57
2022-10-24T22:21:42.168Z,0.70
2022-10-24T22:24:21.219Z,0.80
2022-10-24T22:26:49.260Z,0.70
2022-10-24T22:29:22.312Z,0.88
2022-10-24T22:31:50.812Z,0.52
2022-10-24T22:34:21.610Z,0.73
2022-10-24T22:37:14.617Z,0.57
2022-10-24T22:39:42.016Z,0.60
2022-10-24T22:42:14.726Z,0.60
2022-10-24T22:44:45.163Z,0.52
2022-10-24T22:47:30.364Z,0.50
2022-10-24T22:50:10.626Z,0.70
2022-10-24T22:52:37.793Z,0.70
2022-10-24T22:55:07.234Z,0.50
2022-10-24T22:57:36.493Z,0.30
2022-10-24T23:00:03.876Z,0.60
2022-10-24T23:02:36.686Z,0.60
2022-10-24T23:05:22.661Z,0.60
2022-10-24T23:08:04.017Z,0.50
2022-10-24T23:10:31.068Z,0.40
2022-10-24T23:12:58.417Z,0.65
2022-10-24T23:15:26.183Z,0.47
2022-10-24T23:17:53.247Z,0.93
2022-10-24T23:20:28.846Z,0.30
2022-10-24T23:23:09.098Z,0.50
2022-10-24T23:25:52.471Z,0.37
2022-10-24T23:28:36.188Z,0.40
2022-10-24T23:33:35.554Z,0.40
2022-10-24T23:36:02.658Z,0.40
2022-10-24T23:38:29.920Z,0.47
2022-10-24T23:40:57.168Z,0.40
2022-10-24T23:43:24.418Z,0.50
2022-10-24T23:45:59.951Z,0.60
2022-10-24T23:48:48.398Z,0.40
2022-10-24T23:51:24.651Z,0.50
2022-10-24T23:53:55.707Z,0.50
2022-10-24T23:56:25.229Z,0.32
2022-10-24T23:58:52.895Z,0.32
